sensor_id;sensor_type;location;lat;lon;timestamp;temperature;humidity
18141;DHT22;9196;49.194;12.526;2022-10-16T00:00:48;15.40;99.90
18141;DHT22;9196;49.194;12.526;2022-10-16T00:03:15;15.40;99.90
18141;DHT22;9196;49.194;12.526;2022-10-16T00:05:43;15.30;99.90
18141;DHT22;9196;49.194;12.526;2022-10-16T00:08:11;15.30;99.90
18141;DHT22;9196;49.194;12.526;2022-10-16T00:10:39;15.30;99.90
18141;DHT22;9196;49.194;12.526;2022-10-16T00:13:07;15.30;99.90
18141;DHT22;9196;49.194;12.526;2022-10-16T00:15:35;15.20;99.90
18141;DHT22;9196;49.194;12.526;2022-10-16T00:18:02;15.20;99.90
18141;DHT22;9196;49.194;12.526;2022-10-16T00:20:29;15.20;99.90
18141;DHT22;9196;49.194;12.526;2022-10-16T00:22:56;15.20;99.90
18141;DHT22;9196;49.194;12.526;2022-10-16T00:25:23;15.20;99.90
18141;DHT22;9196;49.194;12.526;2022-10-16T00:27:50;15.20;99.90
18141;DHT22;9196;49.194;12.526;2022-10-16T00:30:18;15.10;99.90
18141;DHT22;9196;49.194;12.526;2022-10-16T00:32:45;15.00;99.90
18141;DHT22;9196;49.194;12.526;2022-10-16T00:35:12;15.00;99.90
18141;DHT22;9196;49.194;12.526;2022-10-16T00:37:39;15.10;99.90
18141;DHT22;9196;49.194;12.526;2022-10-16T00:40:06;15.00;99.90
18141;DHT22;9196;49.194;12.526;2022-10-16T00:42:33;15.00;99.90
18141;DHT22;9196;49.194;12.526;2022-10-16T00:45:01;15.10;99.90
18141;DHT22;9196;49.194;12.526;2022-10-16T00:47:31;15.00;99.90
18141;DHT22;9196;49.194;12.526;2022-10-16T00:50:03;15.00;99.90
18141;DHT22;9196;49.194;12.526;2022-10-16T00:52:31;15.00;99.90
18141;DHT22;9196;49.194;12.526;2022-10-16T00:54:58;15.00;99.90
18141;DHT22;9196;49.194;12.526;2022-10-16T00:57:26;15.00;99.90
18141;DHT22;9196;49.194;12.526;2022-10-16T00:59:53;15.00;99.90
18141;DHT22;9196;49.194;12.526;2022-10-16T01:02:20;14.90;99.90
18141;DHT22;9196;49.194;12.526;2022-10-16T01:04:51;14.90;99.90
18141;DHT22;9196;49.194;12.526;2022-10-16T01:07:29;15.00;99.90
18141;DHT22;9196;49.194;12.526;2022-10-16T01:10:06;15.00;99.90
18141;DHT22;9196;49.194;12.526;2022-10-16T01:12:39;15.00;99.90
18141;DHT22;9196;49.194;12.526;2022-10-16T01:15:11;15.00;99.90
18141;DHT22;9196;49.194;12.526;2022-10-16T01:17:44;15.00;99.90
18141;DHT22;9196;49.194;12.526;2022-10-16T01:20:21;15.00;99.90
18141;DHT22;9196;49.194;12.526;2022-10-16T01:23:05;15.00;99.90
18141;DHT22;9196;49.194;12.526;2022-10-16T01:25:52;14.90;99.90
18141;DHT22;9196;49.194;12.526;2022-10-16T01:28:28;14.90;99.90
18141;DHT22;9196;49.194;12.526;2022-10-16T01:30:59;14.90;99.90
18141;DHT22;9196;49.194;12.526;2022-10-16T01:33:32;14.90;99.90
18141;DHT22;9196;49.194;12.526;2022-10-16T01:36:05;14.90;99.90
18141;DHT22;9196;49.194;12.526;2022-10-16T01:38:34;14.80;99.90
18141;DHT22;9196;49.194;12.526;2022-10-16T01:41:08;14.80;99.90
18141;DHT22;9196;49.194;12.526;2022-10-16T01:43:39;14.80;99.90
18141;DHT22;9196;49.194;12.526;2022-10-16T01:46:08;14.80;99.90
18141;DHT22;9196;49.194;12.526;2022-10-16T01:48:37;14.80;99.90
18141;DHT22;9196;49.194;12.526;2022-10-16T01:51:06;14.80;99.90
18141;DHT22;9196;49.194;12.526;2022-10-16T01:53:35;14.80;99.90
18141;DHT22;9196;49.194;12.526;2022-10-16T01:56:04;14.80;99.90
18141;DHT22;9196;49.194;12.526;2022-10-16T01:58:37;14.80;99.90
18141;DHT22;9196;49.194;12.526;2022-10-16T02:01:05;14.70;99.90
18141;DHT22;9196;49.194;12.526;2022-10-16T02:03:34;14.70;99.90
18141;DHT22;9196;49.194;12.526;2022-10-16T02:06:02;14.70;99.90
18141;DHT22;9196;49.194;12.526;2022-10-16T02:08:30;14.70;99.90
18141;DHT22;9196;49.194;12.526;2022-10-16T02:10:59;14.70;99.90
18141;DHT22;9196;49.194;12.526;2022-10-16T02:13:30;14.70;99.90
18141;DHT22;9196;49.194;12.526;2022-10-16T02:16:01;14.70;99.90
18141;DHT22;9196;49.194;12.526;2022-10-16T02:18:27;14.70;99.90
18141;DHT22;9196;49.194;12.526;2022-10-16T02:20:59;14.70;99.90
18141;DHT22;9196;49.194;12.526;2022-10-16T02:23:35;14.60;99.90
18141;DHT22;9196;49.194;12.526;2022-10-16T02:26:07;14.60;99.90
18141;DHT22;9196;49.194;12.526;2022-10-16T02:28:38;14.60;99.90
18141;DHT22;9196;49.194;12.526;2022-10-16T02:31:10;14.60;99.90
18141;DHT22;9196;49.194;12.526;2022-10-16T02:33:39;14.60;99.90
18141;DHT22;9196;49.194;12.526;2022-10-16T02:36:07;14.60;99.90
18141;DHT22;9196;49.194;12.526;2022-10-16T02:38:34;14.60;99.90
18141;DHT22;9196;49.194;12.526;2022-10-16T02:41:03;14.60;99.90
18141;DHT22;9196;49.194;12.526;2022-10-16T02:43:30;14.60;99.90
18141;DHT22;9196;49.194;12.526;2022-10-16T02:45:58;14.60;99.90
18141;DHT22;9196;49.194;12.526;2022-10-16T02:48:27;14.60;99.90
18141;DHT22;9196;49.194;12.526;2022-10-16T02:50:53;14.60;99.90
18141;DHT22;9196;49.194;12.526;2022-10-16T02:53:20;14.60;99.90
18141;DHT22;9196;49.194;12.526;2022-10-16T02:55:47;14.60;99.90
18141;DHT22;9196;49.194;12.526;2022-10-16T02:58:14;14.60;99.90
18141;DHT22;9196;49.194;12.526;2022-10-16T03:00:41;14.60;99.90
18141;DHT22;9196;49.194;12.526;2022-10-16T03:03:07;14.60;99.90
18141;DHT22;9196;49.194;12.526;2022-10-16T03:05:36;14.60;99.90
18141;DHT22;9196;49.194;12.526;2022-10-16T03:08:02;14.60;99.90
18141;DHT22;9196;49.194;12.526;2022-10-16T03:10:30;14.50;99.90
18141;DHT22;9196;49.194;12.526;2022-10-16T03:12:57;14.50;99.90
18141;DHT22;9196;49.194;12.526;2022-10-16T03:15:23;14.50;99.90
18141;DHT22;9196;49.194;12.526;2022-10-16T03:17:51;14.50;99.90
18141;DHT22;9196;49.194;12.526;2022-10-16T03:20:18;14.50;99.90
18141;DHT22;9196;49.194;12.526;2022-10-16T03:22:46;14.50;99.90
18141;DHT22;9196;49.194;12.526;2022-10-16T03:25:13;14.60;99.90
18141;DHT22;9196;49.194;12.526;2022-10-16T03:27:39;14.50;99.90
18141;DHT22;9196;49.194;12.526;2022-10-16T03:30:07;14.50;99.90
18141;DHT22;9196;49.194;12.526;2022-10-16T03:32:34;14.50;99.90
18141;DHT22;9196;49.194;12.526;2022-10-16T03:35:01;14.50;99.90
18141;DHT22;9196;49.194;12.526;2022-10-16T03:37:28;14.50;99.90
18141;DHT22;9196;49.194;12.526;2022-10-16T03:39:56;14.50;99.90
18141;DHT22;9196;49.194;12.526;2022-10-16T03:42:23;14.50;99.90
18141;DHT22;9196;49.194;12.526;2022-10-16T03:44:50;14.50;99.90
18141;DHT22;9196;49.194;12.526;2022-10-16T03:47:16;14.60;99.90
18141;DHT22;9196;49.194;12.526;2022-10-16T03:49:47;14.50;99.90
18141;DHT22;9196;49.194;12.526;2022-10-16T03:52:13;14.60;99.90
18141;DHT22;9196;49.194;12.526;2022-10-16T03:54:40;14.60;99.90
18141;DHT22;9196;49.194;12.526;2022-10-16T03:57:08;14.60;99.90
18141;DHT22;9196;49.194;12.526;2022-10-16T03:59:35;14.60;99.90
18141;DHT22;9196;49.194;12.526;2022-10-16T04:02:02;14.60;99.90
18141;DHT22;9196;49.194;12.526;2022-10-16T04:04:29;14.60;99.90
18141;DHT22;9196;49.194;12.526;2022-10-16T04:06:55;14.60;99.90
18141;DHT22;9196;49.194;12.526;2022-10-16T04:09:22;14.70;99.90
18141;DHT22;9196;49.194;12.526;2022-10-16T04:11:49;14.70;99.90
18141;DHT22;9196;49.194;12.526;2022-10-16T04:14:17;14.70;99.90
18141;DHT22;9196;49.194;12.526;2022-10-16T04:16:44;14.70;99.90
18141;DHT22;9196;49.194;12.526;2022-10-16T04:19:11;14.70;99.90
18141;DHT22;9196;49.194;12.526;2022-10-16T04:21:38;14.70;99.90
18141;DHT22;9196;49.194;12.526;2022-10-16T04:24:05;14.60;99.90
18141;DHT22;9196;49.194;12.526;2022-10-16T04:26:32;14.60;99.90
18141;DHT22;9196;49.194;12.526;2022-10-16T04:28:59;14.60;99.90
18141;DHT22;9196;49.194;12.526;2022-10-16T04:31:27;14.60;99.90
18141;DHT22;9196;49.194;12.526;2022-10-16T04:33:54;14.60;99.90
18141;DHT22;9196;49.194;12.526;2022-10-16T04:36:21;14.60;99.90
18141;DHT22;9196;49.194;12.526;2022-10-16T04:38:48;14.60;99.90
18141;DHT22;9196;49.194;12.526;2022-10-16T04:41:15;14.60;99.90
18141;DHT22;9196;49.194;12.526;2022-10-16T04:43:41;14.70;99.90
18141;DHT22;9196;49.194;12.526;2022-10-16T04:46:08;14.70;99.90
18141;DHT22;9196;49.194;12.526;2022-10-16T04:48:37;14.60;99.90
18141;DHT22;9196;49.194;12.526;2022-10-16T04:51:04;14.60;99.90
18141;DHT22;9196;49.194;12.526;2022-10-16T04:53:30;14.60;99.90
18141;DHT22;9196;49.194;12.526;2022-10-16T04:55:57;14.60;99.90
18141;DHT22;9196;49.194;12.526;2022-10-16T04:58:24;14.70;99.90
18141;DHT22;9196;49.194;12.526;2022-10-16T05:00:51;14.70;99.90
18141;DHT22;9196;49.194;12.526;2022-10-16T05:03:18;14.60;99.90
18141;DHT22;9196;49.194;12.526;2022-10-16T05:05:46;14.60;99.90
18141;DHT22;9196;49.194;12.526;2022-10-16T05:08:14;14.50;99.90
18141;DHT22;9196;49.194;12.526;2022-10-16T05:10:42;14.50;99.90
18141;DHT22;9196;49.194;12.526;2022-10-16T05:13:09;14.60;99.90
18141;DHT22;9196;49.194;12.526;2022-10-16T05:15:36;14.50;99.90
18141;DHT22;9196;49.194;12.526;2022-10-16T05:18:02;14.60;99.90
18141;DHT22;9196;49.194;12.526;2022-10-16T05:20:29;14.70;99.90
18141;DHT22;9196;49.194;12.526;2022-10-16T05:22:57;14.80;99.90
18141;DHT22;9196;49.194;12.526;2022-10-16T05:25:24;14.80;99.90
18141;DHT22;9196;49.194;12.526;2022-10-16T05:27:51;14.80;99.90
18141;DHT22;9196;49.194;12.526;2022-10-16T05:30:18;14.80;99.90
18141;DHT22;9196;49.194;12.526;2022-10-16T05:32:46;14.80;99.90
18141;DHT22;9196;49.194;12.526;2022-10-16T05:35:14;14.80;99.90
18141;DHT22;9196;49.194;12.526;2022-10-16T05:37:41;14.80;99.90
18141;DHT22;9196;49.194;12.526;2022-10-16T05:40:10;14.80;99.90
18141;DHT22;9196;49.194;12.526;2022-10-16T05:42:37;14.80;99.90
18141;DHT22;9196;49.194;12.526;2022-10-16T05:45:05;14.80;99.90
18141;DHT22;9196;49.194;12.526;2022-10-16T05:47:32;14.80;99.90
18141;DHT22;9196;49.194;12.526;2022-10-16T05:49:59;14.90;99.90
18141;DHT22;9196;49.194;12.526;2022-10-16T05:52:26;14.90;99.90
18141;DHT22;9196;49.194;12.526;2022-10-16T05:54:53;14.80;99.90
18141;DHT22;9196;49.194;12.526;2022-10-16T05:57:21;14.70;99.90
18141;DHT22;9196;49.194;12.526;2022-10-16T05:59:48;14.80;99.90
18141;DHT22;9196;49.194;12.526;2022-10-16T06:02:15;14.80;99.90
18141;DHT22;9196;49.194;12.526;2022-10-16T06:04:42;14.80;99.90
18141;DHT22;9196;49.194;12.526;2022-10-16T06:07:09;14.90;99.90
18141;DHT22;9196;49.194;12.526;2022-10-16T06:09:36;15.00;99.90
18141;DHT22;9196;49.194;12.526;2022-10-16T06:12:03;15.10;99.90
18141;DHT22;9196;49.194;12.526;2022-10-16T06:14:31;15.10;99.90
18141;DHT22;9196;49.194;12.526;2022-10-16T06:16:58;15.20;99.90
18141;DHT22;9196;49.194;12.526;2022-10-16T06:19:24;15.20;99.90
18141;DHT22;9196;49.194;12.526;2022-10-16T06:21:51;15.20;99.90
18141;DHT22;9196;49.194;12.526;2022-10-16T06:24:18;15.30;99.90
18141;DHT22;9196;49.194;12.526;2022-10-16T06:26:45;15.20;99.90
18141;DHT22;9196;49.194;12.526;2022-10-16T06:29:12;15.20;99.90
18141;DHT22;9196;49.194;12.526;2022-10-16T06:31:40;15.30;99.90
18141;DHT22;9196;49.194;12.526;2022-10-16T06:34:09;15.30;99.90
18141;DHT22;9196;49.194;12.526;2022-10-16T06:36:37;15.20;99.90
18141;DHT22;9196;49.194;12.526;2022-10-16T06:39:05;15.20;99.90
18141;DHT22;9196;49.194;12.526;2022-10-16T06:41:33;15.10;99.90
18141;DHT22;9196;49.194;12.526;2022-10-16T06:44:00;15.10;99.90
18141;DHT22;9196;49.194;12.526;2022-10-16T06:46:27;15.10;99.90
18141;DHT22;9196;49.194;12.526;2022-10-16T06:48:55;15.10;99.90
18141;DHT22;9196;49.194;12.526;2022-10-16T06:51:23;15.10;99.90
18141;DHT22;9196;49.194;12.526;2022-10-16T06:53:51;15.00;99.90
18141;DHT22;9196;49.194;12.526;2022-10-16T06:56:20;15.00;99.90
18141;DHT22;9196;49.194;12.526;2022-10-16T06:58:48;15.00;99.90
18141;DHT22;9196;49.194;12.526;2022-10-16T07:01:16;15.10;99.90
18141;DHT22;9196;49.194;12.526;2022-10-16T07:03:44;15.20;99.90
18141;DHT22;9196;49.194;12.526;2022-10-16T07:06:15;15.30;99.90
18141;DHT22;9196;49.194;12.526;2022-10-16T07:08:43;15.50;99.90
18141;DHT22;9196;49.194;12.526;2022-10-16T07:11:12;15.60;99.90
18141;DHT22;9196;49.194;12.526;2022-10-16T07:13:40;15.80;99.90
18141;DHT22;9196;49.194;12.526;2022-10-16T07:16:08;16.00;99.90
18141;DHT22;9196;49.194;12.526;2022-10-16T07:18:36;16.10;99.90
18141;DHT22;9196;49.194;12.526;2022-10-16T07:21:05;16.20;99.90
18141;DHT22;9196;49.194;12.526;2022-10-16T07:23:33;16.20;99.90
18141;DHT22;9196;49.194;12.526;2022-10-16T07:26:00;16.20;99.90
18141;DHT22;9196;49.194;12.526;2022-10-16T07:28:27;16.20;99.90
18141;DHT22;9196;49.194;12.526;2022-10-16T07:30:54;16.20;99.90
18141;DHT22;9196;49.194;12.526;2022-10-16T07:33:21;16.20;99.90
18141;DHT22;9196;49.194;12.526;2022-10-16T07:35:49;16.40;99.90
18141;DHT22;9196;49.194;12.526;2022-10-16T07:38:16;16.60;99.90
18141;DHT22;9196;49.194;12.526;2022-10-16T07:40:45;16.80;99.90
18141;DHT22;9196;49.194;12.526;2022-10-16T07:43:12;16.90;99.90
18141;DHT22;9196;49.194;12.526;2022-10-16T07:45:47;17.10;99.90
18141;DHT22;9196;49.194;12.526;2022-10-16T07:48:14;17.30;99.90
18141;DHT22;9196;49.194;12.526;2022-10-16T07:50:41;17.40;99.90
18141;DHT22;9196;49.194;12.526;2022-10-16T07:53:09;17.50;99.90
18141;DHT22;9196;49.194;12.526;2022-10-16T07:55:36;17.50;99.90
18141;DHT22;9196;49.194;12.526;2022-10-16T07:58:04;17.50;99.90
18141;DHT22;9196;49.194;12.526;2022-10-16T08:00:31;17.40;99.90
18141;DHT22;9196;49.194;12.526;2022-10-16T08:02:58;17.40;99.90
18141;DHT22;9196;49.194;12.526;2022-10-16T08:05:26;17.40;99.90
18141;DHT22;9196;49.194;12.526;2022-10-16T08:07:53;17.30;99.90
18141;DHT22;9196;49.194;12.526;2022-10-16T08:10:21;17.30;99.90
18141;DHT22;9196;49.194;12.526;2022-10-16T08:12:49;17.40;99.90
18141;DHT22;9196;49.194;12.526;2022-10-16T08:15:17;17.50;99.90
18141;DHT22;9196;49.194;12.526;2022-10-16T08:17:44;17.70;99.90
18141;DHT22;9196;49.194;12.526;2022-10-16T08:20:11;18.00;99.90
18141;DHT22;9196;49.194;12.526;2022-10-16T08:22:38;18.10;99.90
18141;DHT22;9196;49.194;12.526;2022-10-16T08:25:05;18.20;99.90
18141;DHT22;9196;49.194;12.526;2022-10-16T08:27:33;18.20;99.90
18141;DHT22;9196;49.194;12.526;2022-10-16T08:30:00;18.20;99.90
18141;DHT22;9196;49.194;12.526;2022-10-16T08:32:28;18.30;99.90
18141;DHT22;9196;49.194;12.526;2022-10-16T08:34:55;18.40;99.90
18141;DHT22;9196;49.194;12.526;2022-10-16T08:37:21;18.50;99.90
18141;DHT22;9196;49.194;12.526;2022-10-16T08:39:48;18.60;99.90
18141;DHT22;9196;49.194;12.526;2022-10-16T08:42:21;18.60;99.90
18141;DHT22;9196;49.194;12.526;2022-10-16T08:45:25;18.60;99.90
18141;DHT22;9196;49.194;12.526;2022-10-16T08:48:04;18.60;99.90
18141;DHT22;9196;49.194;12.526;2022-10-16T08:50:37;18.50;99.90
18141;DHT22;9196;49.194;12.526;2022-10-16T08:53:05;18.60;99.90
18141;DHT22;9196;49.194;12.526;2022-10-16T08:55:43;18.70;99.90
18141;DHT22;9196;49.194;12.526;2022-10-16T08:58:13;18.50;99.90
18141;DHT22;9196;49.194;12.526;2022-10-16T09:00:42;18.60;99.90
18141;DHT22;9196;49.194;12.526;2022-10-16T09:03:20;18.50;99.90
18141;DHT22;9196;49.194;12.526;2022-10-16T09:06:09;18.40;99.90
18141;DHT22;9196;49.194;12.526;2022-10-16T09:08:46;18.30;99.90
18141;DHT22;9196;49.194;12.526;2022-10-16T09:11:18;18.30;99.90
18141;DHT22;9196;49.194;12.526;2022-10-16T09:13:50;18.40;99.90
18141;DHT22;9196;49.194;12.526;2022-10-16T09:16:25;18.40;99.90
18141;DHT22;9196;49.194;12.526;2022-10-16T09:19:02;18.70;99.90
18141;DHT22;9196;49.194;12.526;2022-10-16T09:21:34;18.80;99.90
18141;DHT22;9196;49.194;12.526;2022-10-16T09:24:10;18.80;99.90
18141;DHT22;9196;49.194;12.526;2022-10-16T09:26:38;18.70;99.90
18141;DHT22;9196;49.194;12.526;2022-10-16T09:29:05;18.60;99.90
18141;DHT22;9196;49.194;12.526;2022-10-16T09:31:32;18.50;99.90
18141;DHT22;9196;49.194;12.526;2022-10-16T09:34:04;18.50;99.90
18141;DHT22;9196;49.194;12.526;2022-10-16T09:36:36;18.40;99.90
18141;DHT22;9196;49.194;12.526;2022-10-16T09:39:07;18.40;99.90
18141;DHT22;9196;49.194;12.526;2022-10-16T09:41:35;18.60;99.90
18141;DHT22;9196;49.194;12.526;2022-10-16T09:44:05;18.70;99.90
18141;DHT22;9196;49.194;12.526;2022-10-16T09:46:40;18.80;99.90
18141;DHT22;9196;49.194;12.526;2022-10-16T09:49:21;18.70;99.90
18141;DHT22;9196;49.194;12.526;2022-10-16T09:51:48;18.70;99.90
18141;DHT22;9196;49.194;12.526;2022-10-16T09:54:16;18.80;99.90
18141;DHT22;9196;49.194;12.526;2022-10-16T09:56:43;18.80;99.90
18141;DHT22;9196;49.194;12.526;2022-10-16T09:59:12;18.90;99.90
18141;DHT22;9196;49.194;12.526;2022-10-16T10:01:41;19.00;99.90
18141;DHT22;9196;49.194;12.526;2022-10-16T10:04:09;19.20;99.90
18141;DHT22;9196;49.194;12.526;2022-10-16T10:06:43;19.40;99.90
18141;DHT22;9196;49.194;12.526;2022-10-16T10:09:18;19.60;99.90
18141;DHT22;9196;49.194;12.526;2022-10-16T10:11:51;19.80;99.90
18141;DHT22;9196;49.194;12.526;2022-10-16T10:14:30;19.80;99.90
18141;DHT22;9196;49.194;12.526;2022-10-16T10:17:10;20.10;99.90
18141;DHT22;9196;49.194;12.526;2022-10-16T10:19:39;20.00;99.90
18141;DHT22;9196;49.194;12.526;2022-10-16T10:22:17;20.00;99.90
18141;DHT22;9196;49.194;12.526;2022-10-16T10:24:53;20.00;99.90
18141;DHT22;9196;49.194;12.526;2022-10-16T10:27:21;20.00;99.90
18141;DHT22;9196;49.194;12.526;2022-10-16T10:29:55;20.10;99.90
18141;DHT22;9196;49.194;12.526;2022-10-16T10:32:31;20.40;99.90
18141;DHT22;9196;49.194;12.526;2022-10-16T10:35:11;20.60;99.90
18141;DHT22;9196;49.194;12.526;2022-10-16T10:38:09;20.50;99.90
18141;DHT22;9196;49.194;12.526;2022-10-16T10:40:50;20.70;99.90
18141;DHT22;9196;49.194;12.526;2022-10-16T10:43:28;21.00;99.90
18141;DHT22;9196;49.194;12.526;2022-10-16T10:46:02;21.20;99.90
18141;DHT22;9196;49.194;12.526;2022-10-16T10:48:54;21.50;99.90
18141;DHT22;9196;49.194;12.526;2022-10-16T10:51:30;21.80;99.90
18141;DHT22;9196;49.194;12.526;2022-10-16T10:54:12;21.90;99.90
18141;DHT22;9196;49.194;12.526;2022-10-16T10:56:48;21.80;99.90
18141;DHT22;9196;49.194;12.526;2022-10-16T10:59:32;21.70;99.90
18141;DHT22;9196;49.194;12.526;2022-10-16T11:02:12;21.60;99.90
18141;DHT22;9196;49.194;12.526;2022-10-16T11:05:09;21.60;99.90
18141;DHT22;9196;49.194;12.526;2022-10-16T11:07:44;21.40;99.90
18141;DHT22;9196;49.194;12.526;2022-10-16T11:10:20;21.20;99.90
18141;DHT22;9196;49.194;12.526;2022-10-16T11:12:49;21.00;99.90
18141;DHT22;9196;49.194;12.526;2022-10-16T11:15:21;20.90;99.90
18141;DHT22;9196;49.194;12.526;2022-10-16T11:17:53;21.00;99.90
18141;DHT22;9196;49.194;12.526;2022-10-16T11:20:24;21.10;99.90
18141;DHT22;9196;49.194;12.526;2022-10-16T11:22:55;21.20;99.90
18141;DHT22;9196;49.194;12.526;2022-10-16T11:25:26;21.20;99.90
18141;DHT22;9196;49.194;12.526;2022-10-16T11:27:58;21.20;99.90
18141;DHT22;9196;49.194;12.526;2022-10-16T11:30:29;21.30;99.90
18141;DHT22;9196;49.194;12.526;2022-10-16T11:33:10;21.40;99.90
18141;DHT22;9196;49.194;12.526;2022-10-16T11:35:43;21.20;99.90
18141;DHT22;9196;49.194;12.526;2022-10-16T11:38:15;21.10;99.90
18141;DHT22;9196;49.194;12.526;2022-10-16T11:40:47;21.10;99.90
18141;DHT22;9196;49.194;12.526;2022-10-16T11:43:19;21.10;99.90
18141;DHT22;9196;49.194;12.526;2022-10-16T11:45:51;21.20;99.90
18141;DHT22;9196;49.194;12.526;2022-10-16T11:48:25;21.20;99.90
18141;DHT22;9196;49.194;12.526;2022-10-16T11:50:55;21.10;99.90
18141;DHT22;9196;49.194;12.526;2022-10-16T11:53:31;21.10;99.90
18141;DHT22;9196;49.194;12.526;2022-10-16T11:56:03;21.10;99.90
18141;DHT22;9196;49.194;12.526;2022-10-16T11:58:33;21.00;99.90
18141;DHT22;9196;49.194;12.526;2022-10-16T12:01:16;21.10;99.90
18141;DHT22;9196;49.194;12.526;2022-10-16T12:03:48;21.20;99.90
18141;DHT22;9196;49.194;12.526;2022-10-16T12:06:27;21.30;99.90
18141;DHT22;9196;49.194;12.526;2022-10-16T12:08:58;21.40;99.90
18141;DHT22;9196;49.194;12.526;2022-10-16T12:11:36;21.60;99.90
18141;DHT22;9196;49.194;12.526;2022-10-16T12:14:21;21.90;99.90
18141;DHT22;9196;49.194;12.526;2022-10-16T12:16:54;22.10;99.90
18141;DHT22;9196;49.194;12.526;2022-10-16T12:19:22;22.30;99.90
18141;DHT22;9196;49.194;12.526;2022-10-16T12:21:50;22.50;99.90
18141;DHT22;9196;49.194;12.526;2022-10-16T12:24:27;22.90;99.90
18141;DHT22;9196;49.194;12.526;2022-10-16T12:26:58;23.30;99.90
18141;DHT22;9196;49.194;12.526;2022-10-16T12:29:33;24.10;99.90
18141;DHT22;9196;49.194;12.526;2022-10-16T12:32:00;24.20;99.90
18141;DHT22;9196;49.194;12.526;2022-10-16T12:34:32;24.40;99.90
18141;DHT22;9196;49.194;12.526;2022-10-16T12:37:10;24.60;99.90
18141;DHT22;9196;49.194;12.526;2022-10-16T12:39:38;24.60;99.90
18141;DHT22;9196;49.194;12.526;2022-10-16T12:42:20;24.40;99.20
18141;DHT22;9196;49.194;12.526;2022-10-16T12:44:47;24.00;99.90
18141;DHT22;9196;49.194;12.526;2022-10-16T12:47:21;23.40;99.90
18141;DHT22;9196;49.194;12.526;2022-10-16T12:49:50;23.00;99.90
18141;DHT22;9196;49.194;12.526;2022-10-16T12:52:27;22.80;99.90
18141;DHT22;9196;49.194;12.526;2022-10-16T12:54:56;22.80;99.90
18141;DHT22;9196;49.194;12.526;2022-10-16T12:57:41;23.00;99.90
18141;DHT22;9196;49.194;12.526;2022-10-16T13:00:20;23.10;99.90
18141;DHT22;9196;49.194;12.526;2022-10-16T13:03:27;23.20;99.20
18141;DHT22;9196;49.194;12.526;2022-10-16T13:06:11;23.50;99.40
18141;DHT22;9196;49.194;12.526;2022-10-16T13:09:01;23.60;99.80
18141;DHT22;9196;49.194;12.526;2022-10-16T13:11:36;23.70;99.20
18141;DHT22;9196;49.194;12.526;2022-10-16T13:17:10;24.00;99.50
18141;DHT22;9196;49.194;12.526;2022-10-16T13:19:45;24.30;99.30
18141;DHT22;9196;49.194;12.526;2022-10-16T13:22:19;24.50;98.80
18141;DHT22;9196;49.194;12.526;2022-10-16T13:24:58;24.50;97.80
18141;DHT22;9196;49.194;12.526;2022-10-16T13:27:34;24.40;98.60
18141;DHT22;9196;49.194;12.526;2022-10-16T13:30:12;24.30;98.20
18141;DHT22;9196;49.194;12.526;2022-10-16T13:32:43;24.10;98.00
18141;DHT22;9196;49.194;12.526;2022-10-16T13:35:22;23.90;99.20
18141;DHT22;9196;49.194;12.526;2022-10-16T13:37:49;24.00;99.20
18141;DHT22;9196;49.194;12.526;2022-10-16T13:40:21;24.00;99.50
18141;DHT22;9196;49.194;12.526;2022-10-16T13:42:48;23.90;99.30
18141;DHT22;9196;49.194;12.526;2022-10-16T13:45:22;23.80;99.40
18141;DHT22;9196;49.194;12.526;2022-10-16T13:47:49;23.70;99.80
18141;DHT22;9196;49.194;12.526;2022-10-16T13:50:17;23.70;99.50
18141;DHT22;9196;49.194;12.526;2022-10-16T13:52:45;23.70;99.80
18141;DHT22;9196;49.194;12.526;2022-10-16T13:55:12;23.60;99.90
18141;DHT22;9196;49.194;12.526;2022-10-16T13:57:40;23.50;99.90
18141;DHT22;9196;49.194;12.526;2022-10-16T14:00:20;23.40;99.90
18141;DHT22;9196;49.194;12.526;2022-10-16T14:02:53;23.50;99.90
18141;DHT22;9196;49.194;12.526;2022-10-16T14:05:22;23.70;99.90
18141;DHT22;9196;49.194;12.526;2022-10-16T14:07:50;23.80;99.90
18141;DHT22;9196;49.194;12.526;2022-10-16T14:10:23;23.80;99.90
18141;DHT22;9196;49.194;12.526;2022-10-16T14:12:56;23.90;99.90
18141;DHT22;9196;49.194;12.526;2022-10-16T14:15:24;24.20;99.90
18141;DHT22;9196;49.194;12.526;2022-10-16T14:17:53;24.40;99.90
18141;DHT22;9196;49.194;12.526;2022-10-16T14:20:22;24.50;99.30
18141;DHT22;9196;49.194;12.526;2022-10-16T14:22:58;24.40;99.20
18141;DHT22;9196;49.194;12.526;2022-10-16T14:25:27;24.30;99.70
18141;DHT22;9196;49.194;12.526;2022-10-16T14:28:00;23.90;99.90
18141;DHT22;9196;49.194;12.526;2022-10-16T14:30:29;23.70;99.90
18141;DHT22;9196;49.194;12.526;2022-10-16T14:32:57;23.70;99.90
18141;DHT22;9196;49.194;12.526;2022-10-16T14:35:28;23.80;99.90
18141;DHT22;9196;49.194;12.526;2022-10-16T14:37:56;24.10;99.90
18141;DHT22;9196;49.194;12.526;2022-10-16T14:40:26;24.30;99.90
18141;DHT22;9196;49.194;12.526;2022-10-16T14:42:53;24.50;99.90
18141;DHT22;9196;49.194;12.526;2022-10-16T14:45:22;24.80;99.90
18141;DHT22;9196;49.194;12.526;2022-10-16T14:47:54;24.90;99.90
18141;DHT22;9196;49.194;12.526;2022-10-16T14:50:22;24.90;99.90
18141;DHT22;9196;49.194;12.526;2022-10-16T14:52:49;25.20;99.70
18141;DHT22;9196;49.194;12.526;2022-10-16T14:55:16;25.40;99.60
18141;DHT22;9196;49.194;12.526;2022-10-16T14:57:44;25.60;99.10
18141;DHT22;9196;49.194;12.526;2022-10-16T15:00:18;25.60;98.80
18141;DHT22;9196;49.194;12.526;2022-10-16T15:02:46;25.70;98.80
18141;DHT22;9196;49.194;12.526;2022-10-16T15:05:16;25.70;98.30
18141;DHT22;9196;49.194;12.526;2022-10-16T15:07:44;25.70;98.40
18141;DHT22;9196;49.194;12.526;2022-10-16T15:10:11;25.70;98.60
18141;DHT22;9196;49.194;12.526;2022-10-16T15:12:39;25.40;98.40
18141;DHT22;9196;49.194;12.526;2022-10-16T15:18:07;25.10;99.90
18141;DHT22;9196;49.194;12.526;2022-10-16T15:20:37;25.00;99.90
18141;DHT22;9196;49.194;12.526;2022-10-16T15:23:05;25.00;99.90
18141;DHT22;9196;49.194;12.526;2022-10-16T15:25:36;25.00;99.90
18141;DHT22;9196;49.194;12.526;2022-10-16T15:28:05;24.80;99.90
18141;DHT22;9196;49.194;12.526;2022-10-16T15:30:32;24.50;99.90
18141;DHT22;9196;49.194;12.526;2022-10-16T15:32:59;24.00;99.90
18141;DHT22;9196;49.194;12.526;2022-10-16T15:35:26;23.60;99.90
18141;DHT22;9196;49.194;12.526;2022-10-16T15:37:54;23.40;99.90
18141;DHT22;9196;49.194;12.526;2022-10-16T15:40:22;23.00;99.90
18141;DHT22;9196;49.194;12.526;2022-10-16T15:42:49;22.80;99.90
18141;DHT22;9196;49.194;12.526;2022-10-16T15:45:16;22.60;99.90
18141;DHT22;9196;49.194;12.526;2022-10-16T15:47:44;22.50;99.90
18141;DHT22;9196;49.194;12.526;2022-10-16T15:50:12;22.40;99.90
18141;DHT22;9196;49.194;12.526;2022-10-16T15:52:40;22.20;99.90
18141;DHT22;9196;49.194;12.526;2022-10-16T15:55:09;22.10;99.90